Home > Products > Valid Products > TAF

000
FTUS44 KFWD 252100 AAA
TAFDFW
TAF AMD
KDFW 252100Z 2521/2624 20010KT P6SM SKC
     FM261800 19016KT P6SM SCT250=



000
FTUS44 KFWD 252100 AAA
TAFACT
TAF AMD
KACT 252100Z 2521/2618 19008KT P6SM SKC=



000
FTUS44 KFWD 252100 AAA
TAFFTW
TAF AMD
KFTW 252100Z 2521/2618 20009KT P6SM SKC=



000
FTUS44 KFWD 251700
TAFACT
TAF
KACT 251722Z 2518/2618 19008KT P6SM SKC=



000
FTUS44 KFWD 251700
TAFFTW
TAF
KFTW 251722Z 2518/2618 20009KT P6SM SKC=



000
FTUS44 KFWD 251700
TAFDFW
TAF
KDFW 251722Z 2518/2624 20010KT P6SM SKC
     FM261800 19016KT P6SM SCT250=



000
FTUS44 KFWD 251500 AAA
TAFFTW
TAF AMD
KFTW 251502Z 2515/2612 20008KT P6SM SKC=



000
FTUS44 KFWD 251500 AAA
TAFACT
TAF AMD
KACT 251502Z 2515/2612 19006KT P6SM SKC=



000
FTUS44 KFWD 251500 AAA
TAFDFW
TAF AMD
KDFW 251502Z 2515/2618 20009KT P6SM SKC=



000
FTUS44 KFWD 251100
TAFFTW
TAF
KFTW 251120Z 2512/2612 20008KT P6SM SKC=



000
FTUS44 KFWD 251100
TAFDFW
TAF
KDFW 251120Z 2512/2618 20008KT P6SM SKC=



000
FTUS44 KFWD 251100
TAFACT
TAF
KACT 251120Z 2512/2612 19006KT P6SM SKC=



000
FTUS44 KFWD 251100
TAFFTW
TAF
KFTW 251120Z 2512/2612 20008KT P6SM SKC=



000
FTUS44 KFWD 251100
TAFACT
TAF
KACT 251120Z 2512/2612 19006KT P6SM SKC=



000
FTUS44 KFWD 251100
TAFDFW
TAF
KDFW 251120Z 2512/2618 20008KT P6SM SKC=



000
FTUS44 KFWD 250900 AAA
TAFDFW
TAF AMD
KDFW 250903Z 2509/2612 19008KT P6SM SKC=



000
FTUS44 KFWD 250900 AAA
TAFACT
TAF AMD
KACT 250903Z 2509/2606 19006KT P6SM SKC=



000
FTUS44 KFWD 250900 AAA
TAFFTW
TAF AMD
KFTW 250903Z 2509/2606 19008KT P6SM SKC=



000
FTUS44 KFWD 250500
TAFFTW
TAF
KFTW 250520Z 2506/2606 18008KT P6SM SCT300=



000
FTUS44 KFWD 250500
TAFDFW
TAF
KDFW 250520Z 2506/2612 18008KT P6SM SCT300=



000
FTUS44 KFWD 250500
TAFACT
TAF
KACT 250520Z 2506/2606 18008KT P6SM SCT300=



000
FTUS44 KFWD 250300 AAA
TAFACT
TAF AMD
KACT 250301Z 2503/2524 18008KT P6SM SCT300=



000
FTUS44 KFWD 250300 AAA
TAFFTW
TAF AMD
KFTW 250301Z 2503/2524 17009KT P6SM SCT300=



000
FTUS44 KFWD 250300 AAA
TAFDFW
TAF AMD
KDFW 250301Z 2503/2606 18010KT P6SM SCT300=



000
FTUS44 KFWD 242300
TAFDFW
TAF
KDFW 242322Z 2500/2606 18010KT P6SM SCT300=



000
FTUS44 KFWD 242300
TAFFTW
TAF
KFTW 242322Z 2500/2524 17009KT P6SM SCT300=



000
FTUS44 KFWD 242300
TAFACT
TAF
KACT 242322Z 2500/2524 18008KT P6SM SCT300=



000
FTUS44 KFWD 242100 AAA
TAFFTW
TAF AMD
KFTW 242100Z 2421/2518 17009KT P6SM SCT300=



000
FTUS44 KFWD 242100 AAA
TAFACT
TAF AMD
KACT 242100Z 2421/2518 18008KT P6SM FEW060 SCT300=



000
FTUS44 KFWD 242100 AAA
TAFDFW
TAF AMD
KDFW 242100Z 2421/2524 18010KT P6SM SCT300=



000
FTUS44 KFWD 241700
TAFFTW
TAF
KFTW 241720Z 2418/2518 17009KT P6SM SCT300=



000
FTUS44 KFWD 241700
TAFDFW
TAF
KDFW 241720Z 2418/2524 18010KT P6SM SCT300=



000
FTUS44 KFWD 241700
TAFACT
TAF
KACT 241720Z 2418/2518 18008KT P6SM FEW060 SCT300=



000
FTUS44 KFWD 241500 AAA
TAFACT
TAF AMD
KACT 241506Z 2415/2512 18008KT P6SM SCT060=



000
FTUS44 KFWD 241500 AAA
TAFFTW
TAF AMD
KFTW 241506Z 2415/2512 16008KT P6SM SCT070=



000
FTUS44 KFWD 241500 AAA
TAFDFW
TAF AMD
KDFW 241506Z 2415/2518 16009KT P6SM SCT070=



000
FTUS44 KFWD 241100
TAFDFW
TAF
KDFW 241120Z 2412/2518 15005KT P6SM BKN060
     FM241700 17009KT P6SM SCT300=



000
FTUS44 KFWD 241100
TAFACT
TAF
KACT 241120Z 2412/2512 20007KT P6SM SCT070
     FM241700 17009KT P6SM SCT300=



000
FTUS44 KFWD 241100
TAFFTW
TAF
KFTW 241120Z 2412/2512 15005KT P6SM BKN060
     FM241700 17009KT P6SM SCT300=



000
FTUS44 KFWD 240900 AAA
TAFFTW
TAF AMD
KFTW 240903Z 2409/2506 17005KT P6SM FEW035 BKN060
     FM241700 17009KT P6SM SCT250=



000
FTUS44 KFWD 240900 AAA
TAFACT
TAF AMD
KACT 240903Z 2409/2506 16006KT P6SM FEW035 BKN070
     FM241700 17009KT P6SM SCT250=



000
FTUS44 KFWD 240900 AAA
TAFDFW
TAF AMD
KDFW 240903Z 2409/2512 17005KT P6SM FEW035 BKN060
     FM241700 17009KT P6SM SCT250=



000
FTUS44 KFWD 240500
TAFACT
TAF
KACT 240520Z 2406/2506 14006KT P6SM SKC
     FM241000 15005KT P6SM BKN035
     FM241700 17009KT P6SM SCT250=



000
FTUS44 KFWD 240500
TAFDFW
TAF
KDFW 240520Z 2406/2512 14006KT P6SM SKC
     FM241000 15005KT P6SM BKN035
     FM241700 17009KT P6SM SCT250=



000
FTUS44 KFWD 240500
TAFFTW
TAF
KFTW 240520Z 2406/2506 14006KT P6SM SKC
     FM241000 15005KT P6SM BKN035
     FM241700 17009KT P6SM SCT250=



000
FTUS44 KFWD 240300 AAA
TAFACT
TAF AMD
KACT 240302Z 2403/2424 14005KT P6SM SCT250=



000
FTUS44 KFWD 240300 AAA
TAFDFW
TAF AMD
KDFW 240302Z 2403/2506 16005KT P6SM SKC
     FM241000 15005KT P6SM BKN035
     FM241700 17009KT P6SM SCT250=



000
FTUS44 KFWD 240300 AAA
TAFFTW
TAF AMD
KFTW 240302Z 2403/2424 16005KT P6SM SKC
     FM241000 15005KT P6SM BKN035
     FM241700 17009KT P6SM SCT250=



000
FTUS44 KFWD 240300 AAA
TAFDFW
TAF AMD
KDFW 240302Z 2403/2506 16005KT P6SM SKC
     FM241000 15005KT P6SM BKN035
     FM241700 17009KT P6SM SCT250=



000
FTUS44 KFWD 240300 AAA
TAFACT
TAF AMD
KACT 240302Z 2403/2424 14005KT P6SM SCT250=



000
FTUS44 KFWD 240300 AAA
TAFFTW
TAF AMD
KFTW 240302Z 2403/2424 16005KT P6SM SKC
     FM241000 15005KT P6SM BKN035
     FM241700 17009KT P6SM SCT250=



000
FTUS44 KFWD 232300
TAFACT
TAF
KACT 232339Z 2400/2424 14005KT P6SM SKC=



000
FTUS44 KFWD 232300
TAFFTW
TAF
KFTW 232339Z 2400/2424 16005KT P6SM SKC=



000
FTUS44 KFWD 232300
TAFDFW
TAF
KDFW 232339Z 2400/2506 16005KT P6SM SKC=



000
FTUS44 KFWD 232000 AAA
TAFACT
TAF AMD
KACT 232058Z 2321/2418 17005KT P6SM SCT070=



000
FTUS44 KFWD 232000 AAA
TAFDFW
TAF AMD
KDFW 232058Z 2321/2424 16008KT P6SM SCT070=



000
FTUS44 KFWD 232000 AAA
TAFFTW
TAF AMD
KFTW 232058Z 2321/2418 16007KT P6SM SCT070=



000
FTUS44 KFWD 231700
TAFFTW
TAF
KFTW 231720Z 2318/2418 16007KT P6SM SCT070=



000
FTUS44 KFWD 231700
TAFACT
TAF
KACT 231720Z 2318/2418 17005KT P6SM SCT070=



000
FTUS44 KFWD 231700
TAFDFW
TAF
KDFW 231720Z 2318/2424 16008KT P6SM SCT070=



000
FTUS44 KFWD 231500 AAA
TAFACT
TAF AMD
KACT 231512Z 2315/2412 13006KT P6SM BKN090=



000
FTUS44 KFWD 231500 AAA
TAFFTW
TAF AMD
KFTW 231512Z 2315/2412 14007KT P6SM BKN070=



000
FTUS44 KFWD 231500 AAA
TAFDFW
TAF AMD
KDFW 231512Z 2315/2418 14006KT P6SM BKN080=



000
FTUS44 KFWD 231100
TAFFTW
TAF
KFTW 231120Z 2312/2412 14007KT P6SM BKN070=



000
FTUS44 KFWD 231100
TAFACT
TAF
KACT 231120Z 2312/2412 13006KT P6SM BKN090=



000
FTUS44 KFWD 231100
TAFDFW
TAF
KDFW 231120Z 2312/2418 14006KT P6SM BKN080=



000
FTUS44 KFWD 230900 AAA
TAFACT
TAF AMD
KACT 230901Z 2309/2406 13006KT P6SM BKN120=



000
FTUS44 KFWD 230900 AAA
TAFDFW
TAF AMD
KDFW 230901Z 2309/2412 14007KT P6SM SCT050 BKN100 BKN200=



000
FTUS44 KFWD 230900 AAA
TAFFTW
TAF AMD
KFTW 230901Z 2309/2406 14007KT P6SM BKN060 OVC100=



000
FTUS44 KFWD 230500
TAFDFW
TAF
KDFW 230524Z 2306/2412 14007KT P6SM SCT050 BKN100 BKN200=



000
FTUS44 KFWD 230500
TAFACT
TAF
KACT 230524Z 2306/2406 13006KT P6SM FEW060 BKN100 BKN200=



000
FTUS44 KFWD 230500
TAFFTW
TAF
KFTW 230524Z 2306/2406 14007KT P6SM SCT050 BKN100 BKN200=



000
FTUS44 KFWD 230200 AAA
TAFFTW
TAF AMD
KFTW 230259Z 2303/2324 13007KT P6SM SCT050 BKN120 BKN200=



000
FTUS44 KFWD 230200 AAA
TAFACT
TAF AMD
KACT 230259Z 2303/2324 13006KT P6SM FEW050 BKN120 BKN200=



000
FTUS44 KFWD 230200 AAA
TAFDFW
TAF AMD
KDFW 230259Z 2303/2406 13007KT P6SM SCT050 BKN120 BKN200=



000
FTUS44 KFWD 222300
TAFFTW
TAF
KFTW 222320Z 2300/2324 13007KT P6SM SCT050 BKN120 BKN200=



000
FTUS44 KFWD 222300
TAFDFW
TAF
KDFW 222320Z 2300/2406 13007KT P6SM SCT050 BKN120 BKN200=



000
FTUS44 KFWD 222300
TAFACT
TAF
KACT 222320Z 2300/2324 13006KT P6SM FEW050 BKN120 BKN200=



    US Dept of Commerce
    National Oceanic and Atmospheric Administration
    National Weather Service
    1325 East West Highway
    Silver Spring, MD 20910
    Page Author: NWS Internet Services Team
Disclaimer
Information Quality
Credits
Glossary
Privacy Policy
Freedom of Information Act (FOIA)
About Us
Career Opportunities